Rio Nido, CA

12:44 AM PST on December 18, 2014 (GMT -0800)
Forestville North | Change Station
CLOSE
Current Station
Personal Weather Station
Location: Healdsburg, CA
Elevation: 62 ft
Nearby Weather Stations

Elev 62 ft 38.50 °N, 122.89 °W | Updated 3 seconds ago

Mostly Cloudy
Mostly Cloudy
49.8 °F
Feels Like 49 °F
N
3.2
Wind Variable Wind from NE
Gusts 5.3 mph

Today
High -- | Low -- °F
--% Chance of Precip.
Yesterday
High -- | Low -- °F
Precip. -- in
7:24 AM 4:53 PM
Waning Crescent, 16% visible
Pressure 30.03 in
Visibility 7.0 miles
Clouds Overcast 1900 ft
Windchill 49 °F
Dew Point 50 °F
Humidity 100%
Rainfall 0.00 in
Snow Depth Not available.
UV 0 out of 12
Pollen 1.30 out of 12
Air Quality Not available.
Flu Activity Not available.
METAR KSTS 180753Z AUTO 09004KT 7SM -RA OVC019 10/09 A3005 RMK AO2 RAE10B44 SLP169 P0001 T01000089 401330083

More Conditions Fewer Conditions

Pressure 30.03 in
Visibility 7.0 miles
Clouds Overcast 1900 ft
Windchill 49 °F
Dew Point 50 °F
Humidity 100%
Rainfall 0.00 in
Snow Depth Not available.
UV 0 out of 12
Pollen 1.30 out of 12
Air Quality Not available.
Flu Activity Not available.
METAR KSTS 180753Z AUTO 09004KT 7SM -RA OVC019 10/09 A3005 RMK AO2 RAE10B44 SLP169 P0001 T01000089 401330083

More Conditions Fewer Conditions

10-Day Weather Forecast

Almanac

Astronomy

Dec. 18, 2014 Rise Set
Actual Time
Civil Twilight
Nautical Twilight
Astronomical Twilight
Moon
Length of Visible Light
Length of Day
Tomorrow will be .
, % of the Moon is Illuminated

Today's Extremes

State Highs State Lows

Community

WunderPhotos

Upload Photos

1,778,907 photos uploaded!

WunderBlogs® & News

Nearby

Air Quality

  Air Quality AQ Index Pollutant
Not available.

Snow Depth

Station Depth Elevation

Earthquake Activity

City Distance Mag. Time & Date
Minimum magnitude displayed is 2.5.

Coastal Water Temperatures

Place Temperature

Nearby Weather Stations